Time;durP1;ratioP1;P1;durP2;ratioP2;P2;SDS_P1;SDS_P2;PMS_P1;PMS_P2;Temp;Humidity;BMP_temperature;BMP_pressure;BME280_temperature;BME280_humidity;BME280_pressure;Samples;Min_cycle;Max_cycle;Signal;HPM_P1;HPM_P2
2022/07/01 00:02:10;;;;;;;1.25;0.60;;;15.00;99.90;;;;;;5107069;28;20039;-68
2022/07/01 00:04:36;;;;;;;1.77;0.55;;;15.00;99.90;;;;;;5090784;28;20051;-68
2022/07/01 00:07:02;;;;;;;2.33;0.80;;;14.80;99.90;;;;;;5089361;28;20479;-68
2022/07/01 00:09:28;;;;;;;1.90;0.60;;;15.10;99.90;;;;;;5089803;28;20044;-68
2022/07/01 00:11:54;;;;;;;2.13;0.80;;;14.40;99.90;;;;;;5084287;27;20039;-69
2022/07/01 00:14:22;;;;;;;2.25;0.70;;;14.60;99.90;;;;;;5076716;28;20043;-68
2022/07/01 00:16:49;;;;;;;1.90;0.80;;;15.10;99.90;;;;;;5084521;28;20067;-68
2022/07/01 00:19:14;;;;;;;1.77;0.80;;;14.40;99.90;;;;;;5090194;28;20076;-69
2022/07/01 00:21:40;;;;;;;1.58;0.60;;;14.40;99.90;;;;;;5088321;28;20040;-68
2022/07/01 00:24:06;;;;;;;1.25;0.50;;;15.10;99.90;;;;;;5070332;28;20048;-68
2022/07/01 00:26:32;;;;;;;1.65;0.43;;;15.20;99.90;;;;;;5074449;28;20522;-68
2022/07/01 00:28:58;;;;;;;2.95;0.82;;;15.10;99.90;;;;;;5072160;28;20039;-68
2022/07/01 00:31:23;;;;;;;2.38;0.88;;;15.20;99.90;;;;;;5089616;28;20035;-68
2022/07/01 00:33:49;;;;;;;2.45;0.80;;;14.60;99.90;;;;;;5088061;28;20115;-68
2022/07/01 00:36:14;;;;;;;1.83;0.70;;;15.20;99.90;;;;;;5092692;28;20124;-68
2022/07/01 00:38:40;;;;;;;2.00;0.70;;;14.60;99.90;;;;;;5098001;28;20039;-68
2022/07/01 00:41:06;;;;;;;1.42;0.80;;;14.90;99.90;;;;;;5091541;28;20132;-68
2022/07/01 00:43:36;;;;;;;1.77;0.80;;;14.50;99.90;;;;;;5074953;28;20047;-68
2022/07/01 00:46:02;;;;;;;2.40;1.02;;;14.50;99.90;;;;;;5092901;28;20048;-68
2022/07/01 00:48:28;;;;;;;1.48;0.80;;;15.20;99.90;;;;;;5074936;28;20035;-68
2022/07/01 00:50:54;;;;;;;2.08;0.90;;;15.00;99.90;;;;;;5092676;28;20031;-68
2022/07/01 00:53:20;;;;;;;;;;;14.60;99.90;;;;;;5090876;28;20036;-68
2022/07/01 00:55:46;;;;;;;3.45;0.90;;;15.30;99.90;;;;;;5091810;28;19988;-68
2022/07/01 00:58:11;;;;;;;1.85;0.80;;;14.90;99.90;;;;;;5091247;28;20036;-68
2022/07/01 01:00:40;;;;;;;4.07;1.00;;;15.20;99.90;;;;;;5093240;28;20082;-68
2022/07/01 01:03:10;;;;;;;2.03;0.80;;;14.50;99.90;;;;;;5078139;28;20044;-68
2022/07/01 01:05:37;;;;;;;1.50;0.60;;;15.20;99.90;;;;;;5088178;28;20112;-68
2022/07/01 01:08:03;;;;;;;2.03;0.60;;;14.40;99.90;;;;;;5102751;28;20076;-68
2022/07/01 01:10:30;;;;;;;1.15;0.50;;;14.60;99.90;;;;;;5108462;27;20432;-68
2022/07/01 01:12:57;;;;;;;1.63;0.57;;;14.60;99.90;;;;;;5093838;28;20067;-68
2022/07/01 01:15:23;;;;;;;1.35;0.40;;;14.50;99.90;;;;;;5112155;28;20117;-68
2022/07/01 01:17:50;;;;;;;0.98;0.50;;;14.70;99.90;;;;;;5094938;28;20040;-68
2022/07/01 01:20:19;;;;;;;1.02;0.40;;;14.70;99.90;;;;;;5093583;28;20510;-68
2022/07/01 01:22:47;;;;;;;0.50;0.40;;;15.20;99.90;;;;;;5090013;28;20423;-68
2022/07/01 01:25:13;;;;;;;1.15;0.50;;;14.50;99.90;;;;;;5098251;28;20044;-68
2022/07/01 01:27:38;;;;;;;1.50;0.60;;;15.20;99.90;;;;;;5092913;28;20126;-68
2022/07/01 01:30:10;;;;;;;2.10;0.60;;;14.50;99.90;;;;;;5093950;28;20181;-68
2022/07/01 01:32:36;;;;;;;1.13;0.60;;;14.40;99.90;;;;;;5087953;28;20110;-68
2022/07/01 01:35:02;;;;;;;1.75;0.50;;;15.10;99.90;;;;;;5072134;28;20064;-68
2022/07/01 01:37:28;;;;;;;3.17;0.47;;;14.80;99.90;;;;;;5074503;28;20050;-68
2022/07/01 01:39:55;;;;;;;1.48;0.50;;;14.40;99.90;;;;;;5088551;28;20035;-68
2022/07/01 01:42:21;;;;;;;0.50;0.50;;;15.10;99.90;;;;;;5089255;28;20075;-68
2022/07/01 01:44:47;;;;;;;0.65;0.30;;;15.10;99.90;;;;;;5093606;28;20043;-68
2022/07/01 01:47:13;;;;;;;1.00;0.43;;;14.40;99.90;;;;;;5092809;28;20761;-68
2022/07/01 01:49:38;;;;;;;0.20;0.20;;;15.00;99.90;;;;;;5094191;28;20122;-68
2022/07/01 01:52:06;;;;;;;0.30;0.30;;;14.90;99.90;;;;;;5095441;28;20114;-68
2022/07/01 01:54:32;;;;;;;0.60;0.40;;;15.00;99.90;;;;;;5085265;28;20455;-68
2022/07/01 01:56:58;;;;;;;1.80;0.75;;;14.40;99.90;;;;;;5090792;28;20156;-68
2022/07/01 01:59:23;;;;;;;1.23;0.40;;;14.50;99.90;;;;;;5090339;28;20046;-68
2022/07/01 02:01:49;;;;;;;0.80;0.40;;;15.00;99.90;;;;;;5074539;28;20425;-68
2022/07/01 02:04:15;;;;;;;0.80;0.30;;;15.10;99.90;;;;;;5096982;28;20063;-68
2022/07/01 02:06:41;;;;;;;1.13;0.30;;;15.10;99.90;;;;;;5093690;27;20558;-68
2022/07/01 02:09:08;;;;;;;0.47;0.30;;;14.60;99.90;;;;;;5091312;28;20080;-68
2022/07/01 02:11:34;;;;;;;0.38;0.35;;;14.40;99.90;;;;;;5094100;28;20038;-68
2022/07/01 02:14:00;;;;;;;0.20;0.20;;;14.40;99.90;;;;;;5094585;28;20070;-68
2022/07/01 02:16:27;;;;;;;0.57;0.30;;;15.10;99.90;;;;;;5093366;28;20487;-68
2022/07/01 02:18:52;;;;;;;1.67;0.20;;;14.40;99.90;;;;;;5092865;28;20035;-68
2022/07/01 02:21:18;;;;;;;0.20;0.20;;;15.00;99.90;;;;;;5066621;28;20116;-68
2022/07/01 02:23:44;;;;;;;0.20;0.20;;;14.40;99.90;;;;;;5091101;27;20049;-68
2022/07/01 02:26:09;;;;;;;0.30;0.20;;;14.70;99.90;;;;;;5076350;28;20364;-68
2022/07/01 02:28:35;;;;;;;0.82;0.50;;;14.30;99.90;;;;;;5070532;28;20906;-68
2022/07/01 02:31:02;;;;;;;0.80;0.50;;;14.30;99.90;;;;;;5092227;28;20040;-68
2022/07/01 02:33:28;;;;;;;1.10;0.55;;;14.80;99.90;;;;;;5093553;28;20108;-68
2022/07/01 02:35:54;;;;;;;1.50;0.50;;;14.40;99.90;;;;;;5089308;28;20391;-68
2022/07/01 02:38:19;;;;;;;0.50;0.50;;;15.00;99.90;;;;;;5073894;28;20096;-68
2022/07/01 02:40:45;;;;;;;0.30;0.28;;;14.90;99.90;;;;;;5077403;28;20043;-68
2022/07/01 02:43:11;;;;;;;1.10;0.40;;;14.30;99.90;;;;;;5086319;28;20062;-68
2022/07/01 02:45:37;;;;;;;0.30;0.30;;;14.30;99.90;;;;;;5090496;28;20040;-68
2022/07/01 02:48:02;;;;;;;0.40;0.40;;;14.90;99.90;;;;;;5071291;28;20824;-68
2022/07/01 02:50:28;;;;;;;0.35;0.30;;;14.80;99.90;;;;;;5090326;28;20042;-68
2022/07/01 02:52:54;;;;;;;0.40;0.40;;;14.30;99.90;;;;;;5076364;28;20172;-68
2022/07/01 02:55:20;;;;;;;0.60;0.35;;;14.70;99.90;;;;;;5092996;28;20126;-68
2022/07/01 02:57:51;;;;;;;0.50;0.32;;;14.90;99.90;;;;;;5090515;28;20035;-68
2022/07/01 03:00:19;;;;;;;0.52;0.30;;;14.20;99.90;;;;;;5093326;28;20140;-68
2022/07/01 03:02:45;;;;;;;0.47;0.40;;;14.50;99.90;;;;;;5070683;28;20042;-68
2022/07/01 03:05:12;;;;;;;0.30;0.30;;;14.90;99.90;;;;;;5083208;27;20051;-68
2022/07/01 03:07:38;;;;;;;0.32;0.32;;;14.20;99.90;;;;;;5091243;28;20501;-68
2022/07/01 03:10:05;;;;;;;0.82;0.47;;;14.70;99.90;;;;;;5101658;28;20035;-68
2022/07/01 03:12:34;;;;;;;0.80;0.52;;;14.70;99.90;;;;;;5088425;28;20494;-68
2022/07/01 03:15:06;;;;;;;0.57;0.50;;;14.70;99.90;;;;;;5091257;28;20444;-68
2022/07/01 03:17:33;;;;;;;0.65;0.65;;;14.70;99.90;;;;;;5087216;28;20056;-68
2022/07/01 03:20:00;;;;;;;0.82;0.50;;;14.80;99.90;;;;;;5091416;28;20043;-68
2022/07/01 03:22:28;;;;;;;0.70;0.50;;;14.20;99.90;;;;;;5092817;28;20150;-68
2022/07/01 03:24:54;;;;;;;0.55;0.55;;;14.60;99.90;;;;;;5091690;28;20126;-68
2022/07/01 03:27:20;;;;;;;0.68;0.60;;;14.10;99.90;;;;;;5090038;28;20118;-68
2022/07/01 03:29:46;;;;;;;0.50;0.50;;;14.70;99.90;;;;;;5091106;28;20458;-68
2022/07/01 03:32:12;;;;;;;1.63;0.70;;;14.20;99.90;;;;;;5075710;28;20134;-68
2022/07/01 03:34:40;;;;;;;2.70;0.60;;;14.10;99.90;;;;;;5090430;28;20118;-68
2022/07/01 03:37:07;;;;;;;0.85;0.50;;;14.60;99.90;;;;;;5065916;28;20060;-68
2022/07/01 03:39:34;;;;;;;0.75;0.60;;;14.10;99.90;;;;;;5083843;28;20047;-68
2022/07/01 03:41:59;;;;;;;0.80;0.60;;;14.10;99.90;;;;;;5069449;28;20046;-68
2022/07/01 03:44:25;;;;;;;0.80;0.60;;;14.00;99.90;;;;;;5091237;28;20039;-68
2022/07/01 03:46:51;;;;;;;0.40;0.40;;;14.10;99.90;;;;;;5090863;28;20162;-68
2022/07/01 03:49:18;;;;;;;0.85;0.50;;;14.10;99.90;;;;;;5092523;28;20127;-68
2022/07/01 03:51:43;;;;;;;0.82;0.57;;;14.10;99.90;;;;;;5091257;28;20173;-68
2022/07/01 03:56:53;;;;;;;0.70;0.50;;;14.20;99.90;;;;;;5085266;28;20391;-68
2022/07/01 03:59:19;;;;;;;0.40;0.40;;;14.20;99.90;;;;;;5069707;28;20055;-68
2022/07/01 04:01:44;;;;;;;0.60;0.50;;;14.70;99.90;;;;;;5089248;28;20058;-68
2022/07/01 04:04:10;;;;;;;0.50;0.50;;;14.60;99.90;;;;;;5097825;28;20210;-68
2022/07/01 04:06:37;;;;;;;0.63;0.60;;;14.30;99.90;;;;;;5087745;28;20048;-68
2022/07/01 04:09:03;;;;;;;1.20;0.40;;;14.70;99.90;;;;;;5088267;28;20046;-68
2022/07/01 04:11:28;;;;;;;;;;;14.40;99.90;;;;;;5088455;28;20097;-68
2022/07/01 04:13:55;;;;;;;1.40;0.90;;;14.40;99.90;;;;;;5086741;28;20026;-68
2022/07/01 04:16:20;;;;;;;0.52;0.50;;;14.50;99.90;;;;;;5084516;28;20127;-68
2022/07/01 04:18:47;;;;;;;1.17;0.60;;;14.70;99.90;;;;;;5083835;28;20456;-68
2022/07/01 04:23:57;;;;;;;0.93;0.52;;;14.80;99.90;;;;;;5088947;28;19965;-68
2022/07/01 04:26:24;;;;;;;0.57;0.50;;;14.90;99.90;;;;;;5070298;28;20048;-68
2022/07/01 04:28:51;;;;;;;0.32;0.32;;;14.80;99.90;;;;;;5107437;28;20482;-68
2022/07/01 04:31:16;;;;;;;0.80;0.50;;;14.40;99.90;;;;;;5071000;28;20125;-68
2022/07/01 04:33:42;;;;;;;0.70;0.70;;;14.90;99.90;;;;;;5091717;27;20042;-68
2022/07/01 04:36:08;;;;;;;0.75;0.65;;;14.40;99.90;;;;;;5091259;28;20043;-69
2022/07/01 04:38:33;;;;;;;1.25;0.70;;;14.50;99.90;;;;;;5087036;28;20126;-69
2022/07/01 04:43:43;;;;;;;0.90;0.65;;;14.90;99.90;;;;;;5090351;28;20144;-68
2022/07/01 04:46:09;;;;;;;0.40;0.40;;;14.90;99.90;;;;;;5089738;28;20487;-68
2022/07/01 04:48:34;;;;;;;0.43;0.43;;;14.90;99.90;;;;;;5058565;28;20121;-68
2022/07/01 04:51:00;;;;;;;0.70;0.50;;;14.40;99.90;;;;;;5074169;27;20092;-68
2022/07/01 04:53:26;;;;;;;0.82;0.80;;;14.80;99.90;;;;;;5074402;28;20039;-68
2022/07/01 04:55:51;;;;;;;1.75;0.80;;;14.40;99.90;;;;;;5093176;28;20408;-68
2022/07/01 04:58:17;;;;;;;1.08;0.95;;;14.90;99.90;;;;;;5092619;28;20606;-68
2022/07/01 05:00:43;;;;;;;1.33;1.10;;;14.90;99.90;;;;;;5091741;28;20578;-69
2022/07/01 05:03:09;;;;;;;1.10;0.80;;;14.90;99.90;;;;;;5093098;28;20039;-68
2022/07/01 05:05:34;;;;;;;2.30;0.90;;;14.70;99.90;;;;;;5093440;28;20044;-69
2022/07/01 05:08:00;;;;;;;0.98;0.63;;;14.90;99.90;;;;;;5092793;28;20041;-69
2022/07/01 05:10:28;;;;;;;0.57;0.57;;;14.80;99.90;;;;;;5095316;28;20032;-69
2022/07/01 05:12:54;;;;;;;1.02;0.70;;;15.00;99.90;;;;;;5077790;28;20038;-69
2022/07/01 05:15:19;;;;;;;1.40;1.10;;;15.00;99.90;;;;;;5074505;28;20406;-69
2022/07/01 05:23:13;;;;;;;1.20;1.00;;;14.60;99.90;;;;;;5095066;28;20039;-69
2022/07/01 05:25:39;;;;;;;1.17;1.08;;;14.80;99.90;;;;;;5094653;28;20387;-68
2022/07/01 05:28:04;;;;;;;1.55;1.30;;;14.80;99.90;;;;;;5094209;28;20051;-69
2022/07/01 05:30:30;;;;;;;1.83;1.50;;;14.70;99.90;;;;;;5094357;28;20038;-69
2022/07/01 05:32:56;;;;;;;2.00;1.80;;;14.90;99.90;;;;;;5091290;28;20032;-68
2022/07/01 05:35:21;;;;;;;4.50;2.88;;;14.60;99.90;;;;;;5094489;28;20047;-68
2022/07/01 05:37:47;;;;;;;2.60;2.22;;;15.10;99.90;;;;;;5091526;28;20043;-68
2022/07/01 05:40:13;;;;;;;3.83;2.78;;;14.90;99.90;;;;;;5092657;28;20039;-68
2022/07/01 05:42:38;;;;;;;3.55;2.80;;;14.80;99.90;;;;;;5096098;27;20068;-69
2022/07/01 05:45:04;;;;;;;3.95;3.03;;;14.70;99.90;;;;;;5090871;28;20482;-68
2022/07/01 05:47:30;;;;;;;3.15;2.85;;;14.70;99.90;;;;;;5089322;28;20043;-68
2022/07/01 05:49:56;;;;;;;2.92;2.47;;;15.00;99.90;;;;;;5076636;28;20047;-70
2022/07/01 05:52:22;;;;;;;;;;;14.80;99.90;;;;;;5079533;28;20035;-69
2022/07/01 05:54:47;;;;;;;3.33;2.58;;;14.90;99.90;;;;;;5077708;28;19915;-69
2022/07/01 05:57:13;;;;;;;3.40;2.80;;;15.10;99.90;;;;;;5076009;28;20118;-69
2022/07/01 05:59:39;;;;;;;4.65;3.60;;;15.30;99.90;;;;;;5092368;28;20039;-69
2022/07/01 06:02:04;;;;;;;6.35;4.63;;;15.00;99.90;;;;;;5095254;27;20046;-69
2022/07/01 06:04:30;;;;;;;6.65;4.93;;;15.00;99.90;;;;;;5073633;28;20056;-69
2022/07/01 06:06:56;;;;;;;4.28;3.42;;;15.20;99.90;;;;;;5104736;28;20126;-69
2022/07/01 06:09:21;;;;;;;4.68;4.15;;;15.10;99.90;;;;;;5088618;28;20032;-69
2022/07/01 06:11:47;;;;;;;4.22;3.78;;;15.30;99.90;;;;;;5089176;28;20085;-69
2022/07/01 06:14:13;;;;;;;4.82;3.80;;;15.30;99.90;;;;;;5084921;28;20066;-69
2022/07/01 06:16:39;;;;;;;;;;;15.60;99.90;;;;;;5083172;28;20051;-69
2022/07/01 06:19:06;;;;;;;3.88;2.78;;;15.70;99.90;;;;;;5093114;28;19920;-69
2022/07/01 06:21:32;;;;;;;5.40;4.63;;;15.60;99.90;;;;;;5093234;28;20039;-69
2022/07/01 06:23:58;;;;;;;4.32;3.90;;;15.60;99.90;;;;;;5098069;28;20043;-69
2022/07/01 06:26:24;;;;;;;4.45;3.20;;;15.90;99.90;;;;;;5092894;28;20108;-69
2022/07/01 06:28:50;;;;;;;;;;;15.70;99.90;;;;;;5093678;28;20054;-69
2022/07/01 06:31:15;;;;;;;3.85;3.33;;;15.90;99.90;;;;;;5090516;28;19969;-69
2022/07/01 06:33:41;;;;;;;4.10;3.70;;;15.80;99.90;;;;;;5071101;28;20063;-69
2022/07/01 06:36:07;;;;;;;5.38;3.78;;;16.00;99.90;;;;;;5088291;28;20116;-70
2022/07/01 06:38:32;;;;;;;4.15;3.53;;;15.90;99.90;;;;;;5094017;28;20063;-70
2022/07/01 06:43:43;;;;;;;4.55;4.05;;;15.90;99.90;;;;;;5087721;28;20122;-70
2022/07/01 06:46:09;;;;;;;4.10;3.70;;;15.90;99.90;;;;;;5089436;28;20078;-70
2022/07/01 06:48:36;;;;;;;3.08;2.78;;;16.20;99.90;;;;;;5090044;28;20043;-70
2022/07/01 06:51:02;;;;;;;;;;;16.20;99.90;;;;;;5091375;28;21007;-69
2022/07/01 06:53:27;;;;;;;4.25;3.50;;;16.20;99.90;;;;;;5078075;27;19919;-69
2022/07/01 06:55:53;;;;;;;6.10;5.32;;;16.20;99.90;;;;;;5090899;27;20055;-69
2022/07/01 06:58:19;;;;;;;7.72;5.82;;;16.00;99.90;;;;;;5085484;28;20039;-69
2022/07/01 07:00:45;;;;;;;4.00;3.60;;;16.10;99.90;;;;;;5086671;28;20036;-69
2022/07/01 07:03:10;;;;;;;4.57;3.88;;;16.20;99.90;;;;;;5082560;28;20497;-70
2022/07/01 07:05:36;;;;;;;7.05;5.07;;;16.10;99.90;;;;;;5091425;28;20495;-69
2022/07/01 07:08:02;;;;;;;4.22;3.83;;;16.30;99.90;;;;;;5071418;28;20130;-69
2022/07/01 07:10:28;;;;;;;4.22;3.80;;;16.30;99.90;;;;;;5089559;28;20100;-69
2022/07/01 07:12:53;;;;;;;4.28;3.72;;;16.20;99.90;;;;;;5082797;28;20047;-69
2022/07/01 07:15:19;;;;;;;4.05;3.65;;;16.30;99.90;;;;;;5091506;28;20052;-69
2022/07/01 07:17:45;;;;;;;4.55;3.70;;;16.30;99.90;;;;;;5082931;28;20067;-69
2022/07/01 07:20:11;;;;;;;4.03;3.63;;;16.40;99.90;;;;;;5101073;28;20368;-69
2022/07/01 07:22:36;;;;;;;5.20;4.28;;;16.40;99.90;;;;;;5088953;28;20063;-69
2022/07/01 07:25:02;;;;;;;3.78;3.38;;;16.30;99.90;;;;;;5069097;28;20096;-69
2022/07/01 07:27:28;;;;;;;3.70;2.75;;;16.30;99.90;;;;;;5072677;28;20492;-69
2022/07/01 07:29:54;;;;;;;4.82;4.30;;;16.50;99.90;;;;;;5092177;28;20044;-69
2022/07/01 07:32:20;;;;;;;5.30;4.80;;;16.50;99.90;;;;;;5074625;28;20035;-70
2022/07/01 07:34:46;;;;;;;4.70;4.30;;;16.40;99.90;;;;;;5090651;28;20039;-69
2022/07/01 07:37:11;;;;;;;6.93;6.20;;;16.50;99.90;;;;;;5091306;28;20036;-69
2022/07/01 07:39:37;;;;;;;6.13;5.38;;;16.50;99.90;;;;;;5086049;28;20059;-69
2022/07/01 07:42:04;;;;;;;5.35;4.75;;;16.50;99.90;;;;;;5091657;28;20031;-69
2022/07/01 07:44:29;;;;;;;4.05;3.65;;;16.50;99.90;;;;;;5090769;28;20050;-69
2022/07/01 07:46:56;;;;;;;4.47;4.07;;;16.60;99.90;;;;;;5091889;28;20048;-69
2022/07/01 07:49:23;;;;;;;5.47;4.50;;;16.70;99.90;;;;;;5091959;28;20126;-69
2022/07/01 07:51:49;;;;;;;4.10;3.70;;;16.80;99.90;;;;;;5092277;28;20777;-69
2022/07/01 07:54:15;;;;;;;3.85;3.20;;;16.70;99.90;;;;;;5083587;28;20046;-69
2022/07/01 07:56:40;;;;;;;5.47;4.70;;;16.70;99.90;;;;;;5094605;28;20038;-70
2022/07/01 07:59:06;;;;;;;6.07;5.47;;;16.80;99.90;;;;;;5075572;28;20063;-70
2022/07/01 08:01:32;;;;;;;5.13;4.63;;;16.70;99.90;;;;;;5093442;27;20039;-70
2022/07/01 08:03:58;;;;;;;6.45;5.50;;;16.70;99.90;;;;;;5073259;28;20407;-70
2022/07/01 08:06:24;;;;;;;4.82;4.43;;;16.80;99.90;;;;;;5074866;28;20409;-69
2022/07/01 08:08:50;;;;;;;4.95;3.97;;;17.00;99.90;;;;;;5090529;28;20039;-70
2022/07/01 08:11:16;;;;;;;4.38;3.97;;;17.20;99.90;;;;;;5068907;28;20506;-70
2022/07/01 08:13:42;;;;;;;;;;;17.50;99.90;;;;;;5092352;28;20036;-70
2022/07/01 08:16:08;;;;;;;5.90;4.70;;;17.60;99.90;;;;;;5091976;28;20277;-70
2022/07/01 08:18:34;;;;;;;4.47;4.07;;;17.40;99.90;;;;;;5075838;28;20665;-70
2022/07/01 08:21:00;;;;;;;4.97;4.47;;;17.50;99.90;;;;;;5091780;28;20085;-69
2022/07/01 08:23:25;;;;;;;;;;;17.40;99.90;;;;;;5074981;28;20115;-70
2022/07/01 08:25:51;;;;;;;7.93;5.60;;;17.50;99.90;;;;;;5090319;28;20065;-70
2022/07/01 08:28:17;;;;;;;4.10;3.70;;;17.60;99.90;;;;;;5092380;28;20059;-70
2022/07/01 08:30:43;;;;;;;3.83;3.35;;;17.70;99.90;;;;;;5091797;28;20040;-70
2022/07/01 08:33:09;;;;;;;;;;;17.70;99.90;;;;;;5092352;28;20039;-70
2022/07/01 08:35:35;;;;;;;5.03;4.13;;;17.70;99.90;;;;;;5092518;28;20256;-70
2022/07/01 08:38:01;;;;;;;;;;;17.70;99.90;;;;;;5092914;28;20055;-70
2022/07/01 08:40:29;;;;;;;3.33;2.85;;;17.70;99.90;;;;;;5073087;28;19931;-70
2022/07/01 08:43:03;;;;;;;5.70;3.90;;;17.80;99.90;;;;;;5092032;28;20044;-70
2022/07/01 08:45:31;;;;;;;4.88;3.33;;;17.80;99.90;;;;;;5092336;28;20480;-70
2022/07/01 08:48:00;;;;;;;8.38;3.42;;;17.90;99.90;;;;;;5076603;28;20115;-70
2022/07/01 08:50:31;;;;;;;5.90;3.75;;;17.90;99.90;;;;;;5092192;28;20043;-70
2022/07/01 08:52:58;;;;;;;3.70;2.53;;;17.70;99.90;;;;;;5092395;28;20475;-70
2022/07/01 08:55:25;;;;;;;2.95;2.35;;;17.90;99.90;;;;;;5094210;28;20448;-70
2022/07/01 08:57:51;;;;;;;4.70;2.80;;;18.10;99.90;;;;;;5090812;28;20047;-70
2022/07/01 09:00:17;;;;;;;;;;;18.30;99.90;;;;;;5092393;28;20044;-70
2022/07/01 09:02:50;;;;;;;4.53;2.35;;;18.60;99.90;;;;;;5092697;28;19930;-70
2022/07/01 09:05:16;;;;;;;4.40;2.53;;;18.80;99.90;;;;;;5082751;28;20487;-70
2022/07/01 09:07:41;;;;;;;;;;;19.00;99.90;;;;;;5091627;28;20086;-70
2022/07/01 09:10:18;;;;;;;3.60;2.20;;;19.20;99.90;;;;;;5091058;28;19967;-70
2022/07/01 09:12:47;;;;;;;3.17;2.08;;;19.50;99.90;;;;;;5091012;28;20089;-71
2022/07/01 09:15:26;;;;;;;6.15;2.83;;;19.50;99.90;;;;;;5090064;28;20043;-70
2022/07/01 09:17:53;;;;;;;3.65;2.10;;;19.30;99.90;;;;;;5091087;28;20031;-70
2022/07/01 09:20:34;;;;;;;4.60;2.45;;;19.50;99.90;;;;;;5091378;28;20047;-70
2022/07/01 09:23:21;;;;;;;5.20;2.47;;;19.60;99.90;;;;;;5093532;28;20044;-70
2022/07/01 09:25:51;;;;;;;4.13;2.40;;;19.40;99.90;;;;;;5089736;28;20502;-70
2022/07/01 09:28:22;;;;;;;3.42;2.10;;;19.10;99.90;;;;;;5090200;28;20039;-70
2022/07/01 09:30:50;;;;;;;2.28;1.65;;;19.20;99.90;;;;;;5087173;28;20425;-75
2022/07/01 09:33:21;;;;;;;2.25;1.80;;;19.30;99.90;;;;;;5091361;28;20043;-70
2022/07/01 09:35:49;;;;;;;3.60;2.33;;;19.40;99.90;;;;;;5094275;28;20043;-70
2022/07/01 09:38:16;;;;;;;2.47;1.65;;;19.60;99.90;;;;;;5109397;27;20043;-70
2022/07/01 09:40:50;;;;;;;1.63;1.30;;;20.10;99.90;;;;;;5071207;28;20032;-70
2022/07/01 09:43:27;;;;;;;3.08;1.50;;;20.30;99.90;;;;;;5092699;28;20055;-70
2022/07/01 09:46:00;;;;;;;2.15;1.52;;;20.20;99.90;;;;;;5093761;28;20051;-70
2022/07/01 09:48:30;;;;;;;3.50;1.80;;;19.90;99.90;;;;;;5094834;28;20036;-70
2022/07/01 09:50:55;;;;;;;3.92;1.30;;;19.60;99.90;;;;;;5066792;28;20111;-70
2022/07/01 09:53:21;;;;;;;;;;;19.60;99.90;;;;;;5073339;28;20538;-70
2022/07/01 09:55:47;;;;;;;3.00;1.33;;;19.50;99.90;;;;;;5094257;28;20332;-70
2022/07/01 09:58:13;;;;;;;;;;;19.40;99.90;;;;;;5089874;28;20037;-70
2022/07/01 10:00:39;;;;;;;2.90;1.58;;;19.60;99.90;;;;;;5091454;28;19924;-76
2022/07/01 10:03:05;;;;;;;;;;;19.70;99.90;;;;;;5091590;28;20044;-77
2022/07/01 10:05:36;;;;;;;1.63;1.20;;;19.80;99.90;;;;;;5094224;28;19919;-76
2022/07/01 10:08:33;;;;;;;1.73;1.02;;;19.90;99.90;;;;;;5099936;28;20544;-76
2022/07/01 10:11:14;;;;;;;1.63;1.20;;;19.90;99.90;;;;;;5080339;28;20391;-76
2022/07/01 10:13:41;;;;;;;2.75;1.80;;;20.10;99.90;;;;;;5095315;27;20047;-76
2022/07/01 10:16:09;;;;;;;2.40;1.27;;;20.30;99.90;;;;;;5076809;28;20448;-77
2022/07/01 10:18:35;;;;;;;4.35;1.80;;;20.70;99.90;;;;;;5072689;28;20127;-77
2022/07/01 10:21:03;;;;;;;1.75;1.20;;;20.80;99.90;;;;;;5090842;27;20046;-77
2022/07/01 10:23:40;;;;;;;2.50;1.15;;;20.90;99.90;;;;;;5070201;28;20052;-76
2022/07/01 10:26:11;;;;;;;1.42;1.00;;;21.20;99.90;;;;;;5089101;27;20119;-75
2022/07/01 10:29:00;;;;;;;1.52;1.00;;;21.30;99.90;;;;;;5056021;28;20048;-77
2022/07/01 10:31:36;;;;;;;2.22;1.10;;;21.50;99.90;;;;;;5093562;28;20092;-76
2022/07/01 10:34:03;;;;;;;1.55;1.00;;;21.40;99.90;;;;;;5091181;28;20044;-76
2022/07/01 10:36:35;;;;;;;1.90;1.10;;;21.50;99.90;;;;;;5076428;28;20036;-76
2022/07/01 10:39:03;;;;;;;1.42;1.20;;;21.30;99.90;;;;;;5097689;27;20042;-77
2022/07/01 10:41:31;;;;;;;1.77;1.10;;;21.10;99.90;;;;;;5096628;28;20075;-76
2022/07/01 10:43:58;;;;;;;1.73;1.10;;;20.80;99.90;;;;;;5092315;28;20038;-77
2022/07/01 10:46:45;;;;;;;2.10;1.20;;;20.50;99.90;;;;;;5097823;27;20082;-76
2022/07/01 10:49:41;;;;;;;2.25;1.27;;;20.60;99.90;;;;;;5093821;27;20047;-76
2022/07/01 10:52:20;;;;;;;1.77;1.00;;;20.50;99.90;;;;;;5088174;28;20398;-75
2022/07/01 10:54:55;;;;;;;2.00;1.30;;;20.50;99.90;;;;;;5085042;28;20032;-76
2022/07/01 10:57:31;;;;;;;2.03;1.27;;;21.00;99.90;;;;;;5090680;28;20128;-76
2022/07/01 11:00:20;;;;;;;1.13;0.90;;;21.10;99.90;;;;;;5089997;28;20028;-76
2022/07/01 11:02:45;;;;;;;1.40;0.95;;;21.10;99.90;;;;;;5073670;28;20069;-75
2022/07/01 11:05:13;;;;;;;1.77;1.00;;;20.80;99.90;;;;;;5073400;28;20070;-75
2022/07/01 11:07:47;;;;;;;4.13;1.55;;;20.40;99.90;;;;;;5093521;27;20390;-76
2022/07/01 11:10:15;;;;;;;3.83;0.90;;;19.60;99.90;;;;;;5084251;27;20044;-75
2022/07/01 11:12:43;;;;;;;2.08;0.80;;;18.90;99.90;;;;;;5095019;28;20042;-75
2022/07/01 11:15:10;;;;;;;1.48;0.68;;;18.50;99.90;;;;;;5098720;27;20039;-75
2022/07/01 11:17:47;;;;;;;1.77;0.70;;;18.30;99.90;;;;;;5095134;28;20146;-75
2022/07/01 11:20:13;;;;;;;1.95;0.50;;;18.40;99.90;;;;;;5091370;27;20036;-76
2022/07/01 11:22:39;;;;;;;0.80;0.55;;;18.40;99.90;;;;;;5096881;28;20040;-75
2022/07/01 11:25:08;;;;;;;2.13;0.65;;;18.30;99.90;;;;;;5091988;28;20059;-75
2022/07/01 11:27:35;;;;;;;1.67;0.50;;;18.10;99.90;;;;;;5086650;28;20044;-75
2022/07/01 11:30:08;;;;;;;1.13;0.50;;;17.90;99.90;;;;;;5085527;28;20486;-76
2022/07/01 11:32:37;;;;;;;2.10;0.30;;;17.70;99.90;;;;;;5093504;28;20039;-75
2022/07/01 11:39:21;;;;;;;0.75;0.40;;;17.60;99.90;;;;;;5095014;28;20451;-74
2022/07/01 11:40:51;;;;;;;1.55;0.50;;;17.70;99.90;;;;;;5096461;28;20054;-75
2022/07/01 11:43:19;;;;;;;1.35;0.30;;;17.90;99.90;;;;;;5093378;28;20035;-75
2022/07/01 11:45:45;;;;;;;0.80;0.38;;;18.10;99.90;;;;;;5088556;28;20114;-75
2022/07/01 11:48:11;;;;;;;;;;;19.10;99.90;;;;;;5085328;28;20240;-75
2022/07/01 11:50:37;;;;;;;1.98;0.40;;;19.30;99.90;;;;;;5088792;28;19920;-74
2022/07/01 11:53:03;;;;;;;;;;;19.50;99.90;;;;;;5071215;28;20047;-75
2022/07/01 11:55:28;;;;;;;2.20;0.50;;;19.30;99.90;;;;;;5084300;28;19980;-76
2022/07/01 11:57:54;;;;;;;;;;;19.20;99.90;;;;;;5093442;28;20044;-74
2022/07/01 12:00:20;;;;;;;2.50;0.57;;;19.10;99.90;;;;;;5092034;28;20258;-75
2022/07/01 12:02:49;;;;;;;2.40;0.40;;;19.20;99.90;;;;;;5086236;28;20036;-74
2022/07/01 12:05:15;;;;;;;0.70;0.40;;;19.40;99.90;;;;;;5090973;28;20052;-75
2022/07/01 12:07:41;;;;;;;;;;;19.70;99.90;;;;;;5088523;28;20050;-75
2022/07/01 12:10:08;;;;;;;0.98;0.50;;;20.40;99.90;;;;;;5075528;28;19919;-75
2022/07/01 12:12:33;;;;;;;1.35;0.60;;;20.50;99.90;;;;;;5069591;28;20032;-75
2022/07/01 12:14:59;;;;;;;;;;;20.50;99.90;;;;;;5093536;28;20049;-75
2022/07/01 12:17:27;;;;;;;1.85;0.50;;;20.60;99.90;;;;;;5073147;28;20556;-75
2022/07/01 12:19:53;;;;;;;1.85;0.50;;;20.90;99.90;;;;;;5074531;27;20123;-75
2022/07/01 12:22:23;;;;;;;1.65;0.60;;;20.90;99.90;;;;;;5079265;28;20047;-75
2022/07/01 12:24:49;;;;;;;1.88;0.60;;;21.00;99.90;;;;;;5093329;28;20395;-74
2022/07/01 12:27:16;;;;;;;1.20;0.50;;;21.30;99.90;;;;;;5091650;28;20131;-75
2022/07/01 12:29:50;;;;;;;1.95;0.50;;;21.50;99.90;;;;;;5090367;28;20036;-75
2022/07/01 12:32:22;;;;;;;1.08;0.47;;;21.90;99.90;;;;;;5090911;27;20383;-74
2022/07/01 12:34:51;;;;;;;1.63;0.60;;;22.10;98.00;;;;;;5087221;28;20111;-74
2022/07/01 12:37:29;;;;;;;0.98;0.40;;;22.10;99.90;;;;;;5104765;28;20391;-74
2022/07/01 12:39:59;;;;;;;1.92;0.70;;;22.30;99.90;;;;;;5088168;28;20054;-74
2022/07/01 12:42:25;;;;;;;0.95;0.30;;;22.10;97.00;;;;;;5074770;28;20055;-74
2022/07/01 12:44:52;;;;;;;1.13;0.40;;;21.70;97.00;;;;;;5089576;28;20032;-73
2022/07/01 12:47:37;;;;;;;2.33;0.52;;;21.40;97.60;;;;;;5089263;28;20239;-75
2022/07/01 12:50:13;;;;;;;5.35;1.60;;;21.20;98.60;;;;;;5106279;28;20040;-75
2022/07/01 12:52:41;;;;;;;2.22;0.80;;;20.90;98.60;;;;;;5090734;28;20040;-75
2022/07/01 12:55:18;;;;;;;2.47;0.50;;;21.40;98.30;;;;;;5090983;28;20054;-75
2022/07/01 12:57:53;;;;;;;1.50;0.60;;;21.50;98.10;;;;;;5052268;28;20046;-75
2022/07/01 13:00:20;;;;;;;1.55;0.63;;;21.10;97.70;;;;;;5086769;28;20055;-75
2022/07/01 13:02:46;;;;;;;2.40;0.68;;;20.80;97.80;;;;;;5087407;28;20542;-74
2022/07/01 13:05:13;;;;;;;2.75;0.70;;;20.80;98.60;;;;;;5080508;27;20134;-75
2022/07/01 13:07:39;;;;;;;2.22;0.60;;;21.20;99.90;;;;;;5079354;28;20630;-75
2022/07/01 13:10:06;;;;;;;1.98;0.60;;;21.10;98.70;;;;;;5077951;28;20035;-74
2022/07/01 13:12:31;;;;;;;2.80;0.38;;;20.80;98.30;;;;;;5081248;27;20498;-74
2022/07/01 13:14:57;;;;;;;1.75;0.50;;;20.80;99.50;;;;;;5083634;28;20024;-74